Date,TemperatureHighF,TemperatureAvgF,TemperatureLowF,DewpointHighF,DewpointAvgF,DewpointLowF,HumidityHigh,HumidityAvg,HumidityLow,PressureMaxIn,PressureMinIn,WindSpeedMaxMPH,WindSpeedAvgMPH,GustSpeedMaxMPH,PrecipitationSumIn
2013-3-1,32,30,26,30,25,21,93,84,76,29.99,29.82,10,3,13,0.01
2013-3-2,31,27,25,23,22,20,91,81,68,29.98,29.92,9,2,13,0.01
2013-3-3,29,26,23,23,20,18,91,79,66,30.03,29.94,13,3,17,0.00
2013-3-4,40,28,21,23,19,17,87,69,43,30.15,30.03,11,3,16,0.01
2013-3-5,46,33,19,26,18,13,92,59,26,30.12,29.68,13,2,15,0.00
2013-3-6,44,36,31,34,30,26,95,80,62,30.12,29.69,7,1,15,0.49
2013-3-7,42,36,33,32,30,27,90,79,63,30.29,30.11,12,2,14,0.00
2013-3-8,38,33,27,29,27,24,90,78,69,30.43,30.29,12,3,16,0.00
2013-3-9,56,38,22,33,26,20,96,67,34,30.43,30.18,7,1,9,0.00
2013-3-10,70,56,42,35,29,23,53,36,23,30.18,29.97,10,2,12,0.00
2013-3-11,64,56,47,48,35,30,90,47,29,29.98,29.66,17,3,19,0.20
2013-3-12,47,40,36,44,34,28,92,80,69,29.99,29.74,10,2,19,0.03
2013-3-13,38,32,27,30,26,18,92,79,60,30.15,29.92,21,3,23,0.04
2013-3-14,40,30,24,23,19,17,78,63,42,30.23,30.14,19,4,24,0.00
2013-3-15,51,38,25,36,27,19,84,64,49,30.16,29.82,14,2,20,0.00
2013-3-16,41,36,33,38,34,30,94,91,85,29.97,29.62,8,1,11,0.05
2013-3-17,38,32,28,30,24,22,88,73,55,30.20,29.97,7,1,10,0.00
2013-3-18,40,34,30,36,30,22,94,84,70,30.18,29.70,17,4,18,0.36
2013-3-19,46,39,30,41,28,17,96,67,35,29.97,29.69,27,5,29,0.03
2013-3-20,41,32,26,23,18,16,71,58,37,29.98,29.82,20,3,25,0.00
2013-3-21,31,25,19,21,13,6,81,62,43,29.93,29.86,17,4,19,0.00
2013-3-22,35,28,23,21,19,18,83,69,53,30.04,29.92,10,2,16,0.00
2013-3-23,49,33,18,26,21,16,93,66,35,30.06,30.00,14,2,16,0.00
2013-3-24,46,34,27,30,23,20,89,67,42,30.01,29.53,15,3,19,0.00
2013-3-25,38,33,31,34,32,29,96,93,86,29.75,29.45,8,1,11,0.59
2013-3-26,42,36,32,34,32,30,95,85,67,30.08,29.75,11,2,16,0.23
2013-3-27,44,36,32,33,30,25,95,79,51,30.16,30.07,17,2,21,0.07
2013-3-28,45,38,34,31,29,28,86,70,54,30.27,30.13,11,3,15,0.00
2013-3-29,54,43,35,36,28,21,82,57,31,30.27,30.15,11,1,18,0.00
2013-3-30,57,42,24,30,23,19,91,53,25,30.26,30.02,7,1,11,0.00
2013-3-31,48,46,40,46,36,22,93,72,43,30.02,29.71,10,1,13,0.10